Sao Jose de Mipibu, Brazil
Current Conditions -  °F | °C
As of 5:00 AM on Wednesday 26 Nov 2014 (Local Time) from SBNT Reporting Station
Scattered Clouds Scattered Clouds  
Wind Chill: 77°   Ceiling: Unl
Heat Index: 79°   Visibility: 6mi
Dew Point: 66°   Wind: 8mph
Humidity: 69%   Direction: 120°ESE
Pressure: 29.88"   Gusts: NA
Location:  6.07°S, 35.24°W
Report Text: SBNT 260800Z 12007KT 9999 SCT023 25/19 Q1012
Loading
Personal Weather Stations






























Interactive Weather Map New forecast layout! Learn more

10-Day Weather Forecast

Advertisements
Track Severe Weather on mobile